sensor_id;sensor_type;location;lat;lon;timestamp;P1;durP1;ratioP1;P2;durP2;ratioP2
59659;SDS011;45534;52.690;6.268;2023-07-22T00:00:43;5.32;;;3.55;;
59659;SDS011;45534;52.690;6.268;2023-07-22T00:03:08;11.77;;;4.13;;
59659;SDS011;45534;52.690;6.268;2023-07-22T00:05:34;6.32;;;5.13;;
59659;SDS011;45534;52.690;6.268;2023-07-22T00:08:00;6.50;;;4.95;;
59659;SDS011;45534;52.690;6.268;2023-07-22T00:10:26;10.98;;;4.82;;
59659;SDS011;45534;52.690;6.268;2023-07-22T00:12:51;8.45;;;4.43;;
59659;SDS011;45534;52.690;6.268;2023-07-22T00:15:17;10.85;;;6.15;;
59659;SDS011;45534;52.690;6.268;2023-07-22T00:17:43;28.33;;;6.40;;
59659;SDS011;45534;52.690;6.268;2023-07-22T00:20:09;13.98;;;6.47;;
59659;SDS011;45534;52.690;6.268;2023-07-22T00:22:39;11.57;;;7.32;;
59659;SDS011;45534;52.690;6.268;2023-07-22T00:25:06;11.02;;;5.75;;
59659;SDS011;45534;52.690;6.268;2023-07-22T00:27:35;8.95;;;4.07;;
59659;SDS011;45534;52.690;6.268;2023-07-22T00:30:01;13.82;;;6.45;;
59659;SDS011;45534;52.690;6.268;2023-07-22T00:32:26;12.43;;;4.60;;
59659;SDS011;45534;52.690;6.268;2023-07-22T00:34:52;6.25;;;4.03;;
59659;SDS011;45534;52.690;6.268;2023-07-22T00:37:18;6.75;;;5.53;;
59659;SDS011;45534;52.690;6.268;2023-07-22T00:39:43;8.52;;;5.38;;
59659;SDS011;45534;52.690;6.268;2023-07-22T00:42:10;9.57;;;5.95;;
59659;SDS011;45534;52.690;6.268;2023-07-22T00:44:36;12.10;;;6.43;;
59659;SDS011;45534;52.690;6.268;2023-07-22T00:47:02;9.85;;;4.85;;
59659;SDS011;45534;52.690;6.268;2023-07-22T00:49:28;7.85;;;4.68;;
59659;SDS011;45534;52.690;6.268;2023-07-22T00:51:55;21.00;;;5.97;;
59659;SDS011;45534;52.690;6.268;2023-07-22T00:54:25;8.50;;;4.83;;
59659;SDS011;45534;52.690;6.268;2023-07-22T00:56:51;11.82;;;5.95;;
59659;SDS011;45534;52.690;6.268;2023-07-22T00:59:19;15.55;;;7.00;;
59659;SDS011;45534;52.690;6.268;2023-07-22T01:01:45;12.13;;;6.70;;
59659;SDS011;45534;52.690;6.268;2023-07-22T01:04:13;13.55;;;5.07;;
59659;SDS011;45534;52.690;6.268;2023-07-22T01:06:42;12.32;;;6.43;;
59659;SDS011;45534;52.690;6.268;2023-07-22T01:09:09;8.93;;;4.00;;
59659;SDS011;45534;52.690;6.268;2023-07-22T01:11:35;7.93;;;4.72;;
59659;SDS011;45534;52.690;6.268;2023-07-22T01:14:01;8.13;;;5.85;;
59659;SDS011;45534;52.690;6.268;2023-07-22T01:16:28;16.52;;;7.65;;
59659;SDS011;45534;52.690;6.268;2023-07-22T01:18:55;8.75;;;5.13;;
59659;SDS011;45534;52.690;6.268;2023-07-22T01:21:24;13.45;;;5.85;;
59659;SDS011;45534;52.690;6.268;2023-07-22T01:23:51;10.38;;;6.72;;
59659;SDS011;45534;52.690;6.268;2023-07-22T01:26:17;12.73;;;4.80;;
59659;SDS011;45534;52.690;6.268;2023-07-22T01:28:44;10.30;;;4.97;;
59659;SDS011;45534;52.690;6.268;2023-07-22T01:31:09;8.93;;;5.60;;
59659;SDS011;45534;52.690;6.268;2023-07-22T01:33:35;9.57;;;4.70;;
59659;SDS011;45534;52.690;6.268;2023-07-22T01:36:04;10.57;;;5.45;;
59659;SDS011;45534;52.690;6.268;2023-07-22T01:38:30;11.32;;;6.60;;
59659;SDS011;45534;52.690;6.268;2023-07-22T01:40:56;13.45;;;5.10;;
59659;SDS011;45534;52.690;6.268;2023-07-22T01:43:22;10.65;;;6.30;;
59659;SDS011;45534;52.690;6.268;2023-07-22T01:45:47;12.23;;;5.63;;
59659;SDS011;45534;52.690;6.268;2023-07-22T01:48:13;15.88;;;7.28;;
59659;SDS011;45534;52.690;6.268;2023-07-22T01:50:39;10.55;;;5.45;;
59659;SDS011;45534;52.690;6.268;2023-07-22T01:53:05;21.25;;;7.22;;
59659;SDS011;45534;52.690;6.268;2023-07-22T01:55:31;13.52;;;6.45;;
59659;SDS011;45534;52.690;6.268;2023-07-22T01:57:57;10.15;;;5.30;;
59659;SDS011;45534;52.690;6.268;2023-07-22T02:00:23;12.02;;;5.57;;
59659;SDS011;45534;52.690;6.268;2023-07-22T02:02:49;13.55;;;5.88;;
59659;SDS011;45534;52.690;6.268;2023-07-22T02:05:15;15.32;;;5.20;;
59659;SDS011;45534;52.690;6.268;2023-07-22T02:07:41;16.55;;;8.20;;
59659;SDS011;45534;52.690;6.268;2023-07-22T02:10:07;12.85;;;6.55;;
59659;SDS011;45534;52.690;6.268;2023-07-22T02:12:34;30.38;;;10.30;;
59659;SDS011;45534;52.690;6.268;2023-07-22T02:15:00;13.77;;;5.70;;
59659;SDS011;45534;52.690;6.268;2023-07-22T02:17:27;15.10;;;7.05;;
59659;SDS011;45534;52.690;6.268;2023-07-22T02:19:53;16.58;;;6.35;;
59659;SDS011;45534;52.690;6.268;2023-07-22T02:22:19;11.05;;;5.82;;
59659;SDS011;45534;52.690;6.268;2023-07-22T02:24:44;10.57;;;4.50;;
59659;SDS011;45534;52.690;6.268;2023-07-22T02:27:10;9.73;;;6.53;;
59659;SDS011;45534;52.690;6.268;2023-07-22T02:29:35;19.35;;;7.22;;
59659;SDS011;45534;52.690;6.268;2023-07-22T02:32:01;10.95;;;6.38;;
59659;SDS011;45534;52.690;6.268;2023-07-22T02:34:28;6.32;;;4.63;;
59659;SDS011;45534;52.690;6.268;2023-07-22T02:36:54;12.55;;;8.10;;
59659;SDS011;45534;52.690;6.268;2023-07-22T02:39:19;8.70;;;6.43;;
59659;SDS011;45534;52.690;6.268;2023-07-22T02:41:45;9.35;;;5.00;;
59659;SDS011;45534;52.690;6.268;2023-07-22T02:44:11;9.63;;;6.13;;
59659;SDS011;45534;52.690;6.268;2023-07-22T02:46:37;17.45;;;8.32;;
59659;SDS011;45534;52.690;6.268;2023-07-22T02:49:03;10.60;;;6.47;;
59659;SDS011;45534;52.690;6.268;2023-07-22T02:51:30;11.35;;;6.40;;
59659;SDS011;45534;52.690;6.268;2023-07-22T02:53:56;20.00;;;6.38;;
59659;SDS011;45534;52.690;6.268;2023-07-22T02:56:21;9.70;;;6.65;;
59659;SDS011;45534;52.690;6.268;2023-07-22T02:58:48;9.63;;;5.63;;
59659;SDS011;45534;52.690;6.268;2023-07-22T03:01:15;15.50;;;5.75;;
59659;SDS011;45534;52.690;6.268;2023-07-22T03:03:40;11.45;;;6.43;;
59659;SDS011;45534;52.690;6.268;2023-07-22T03:06:06;10.00;;;5.10;;
59659;SDS011;45534;52.690;6.268;2023-07-22T03:08:33;12.35;;;5.40;;
59659;SDS011;45534;52.690;6.268;2023-07-22T03:10:58;15.70;;;5.97;;
59659;SDS011;45534;52.690;6.268;2023-07-22T03:13:24;15.32;;;6.47;;
59659;SDS011;45534;52.690;6.268;2023-07-22T03:15:54;14.68;;;7.57;;
59659;SDS011;45534;52.690;6.268;2023-07-22T03:18:20;13.20;;;5.15;;
59659;SDS011;45534;52.690;6.268;2023-07-22T03:20:46;13.73;;;8.27;;
59659;SDS011;45534;52.690;6.268;2023-07-22T03:23:12;15.15;;;8.70;;
59659;SDS011;45534;52.690;6.268;2023-07-22T03:25:37;8.98;;;5.38;;
59659;SDS011;45534;52.690;6.268;2023-07-22T03:28:04;13.15;;;7.53;;
59659;SDS011;45534;52.690;6.268;2023-07-22T03:30:31;9.52;;;4.78;;
59659;SDS011;45534;52.690;6.268;2023-07-22T03:32:57;10.75;;;5.25;;
59659;SDS011;45534;52.690;6.268;2023-07-22T03:35:23;13.50;;;6.40;;
59659;SDS011;45534;52.690;6.268;2023-07-22T03:37:49;7.68;;;5.80;;
59659;SDS011;45534;52.690;6.268;2023-07-22T03:40:15;11.05;;;4.75;;
59659;SDS011;45534;52.690;6.268;2023-07-22T03:42:52;12.43;;;7.18;;
59659;SDS011;45534;52.690;6.268;2023-07-22T03:45:20;14.63;;;7.13;;
59659;SDS011;45534;52.690;6.268;2023-07-22T03:47:53;10.48;;;6.32;;
59659;SDS011;45534;52.690;6.268;2023-07-22T03:50:21;12.02;;;6.72;;
59659;SDS011;45534;52.690;6.268;2023-07-22T03:52:47;11.98;;;6.35;;
59659;SDS011;45534;52.690;6.268;2023-07-22T03:55:13;11.73;;;7.20;;
59659;SDS011;45534;52.690;6.268;2023-07-22T03:57:39;9.25;;;5.82;;
59659;SDS011;45534;52.690;6.268;2023-07-22T04:00:05;17.98;;;6.95;;
59659;SDS011;45534;52.690;6.268;2023-07-22T04:02:34;19.10;;;10.52;;
59659;SDS011;45534;52.690;6.268;2023-07-22T04:05:00;11.95;;;7.43;;
59659;SDS011;45534;52.690;6.268;2023-07-22T04:07:25;7.70;;;6.10;;
59659;SDS011;45534;52.690;6.268;2023-07-22T04:09:51;18.13;;;5.57;;
59659;SDS011;45534;52.690;6.268;2023-07-22T04:12:18;15.48;;;7.40;;
59659;SDS011;45534;52.690;6.268;2023-07-22T04:14:43;13.90;;;6.45;;
59659;SDS011;45534;52.690;6.268;2023-07-22T04:17:09;16.77;;;7.07;;
59659;SDS011;45534;52.690;6.268;2023-07-22T04:19:35;15.38;;;6.45;;
59659;SDS011;45534;52.690;6.268;2023-07-22T04:22:01;17.17;;;7.53;;
59659;SDS011;45534;52.690;6.268;2023-07-22T04:24:32;13.10;;;5.32;;
59659;SDS011;45534;52.690;6.268;2023-07-22T04:26:58;12.63;;;6.07;;
59659;SDS011;45534;52.690;6.268;2023-07-22T04:29:24;14.73;;;8.00;;
59659;SDS011;45534;52.690;6.268;2023-07-22T04:31:50;27.98;;;8.20;;
59659;SDS011;45534;52.690;6.268;2023-07-22T04:34:16;17.25;;;6.85;;
59659;SDS011;45534;52.690;6.268;2023-07-22T04:36:41;16.48;;;7.07;;
59659;SDS011;45534;52.690;6.268;2023-07-22T04:39:08;20.17;;;8.15;;
59659;SDS011;45534;52.690;6.268;2023-07-22T04:41:34;12.20;;;6.18;;
59659;SDS011;45534;52.690;6.268;2023-07-22T04:44:00;12.70;;;7.63;;
59659;SDS011;45534;52.690;6.268;2023-07-22T04:46:25;12.25;;;7.30;;
59659;SDS011;45534;52.690;6.268;2023-07-22T04:48:55;10.73;;;7.07;;
59659;SDS011;45534;52.690;6.268;2023-07-22T04:51:21;13.38;;;7.35;;
59659;SDS011;45534;52.690;6.268;2023-07-22T04:53:46;12.68;;;7.15;;
59659;SDS011;45534;52.690;6.268;2023-07-22T04:56:12;16.50;;;8.82;;
59659;SDS011;45534;52.690;6.268;2023-07-22T04:58:38;15.75;;;7.00;;
59659;SDS011;45534;52.690;6.268;2023-07-22T05:01:04;17.52;;;8.18;;
59659;SDS011;45534;52.690;6.268;2023-07-22T05:03:29;10.68;;;5.15;;
59659;SDS011;45534;52.690;6.268;2023-07-22T05:05:55;9.20;;;4.75;;
59659;SDS011;45534;52.690;6.268;2023-07-22T05:08:23;11.90;;;5.03;;
59659;SDS011;45534;52.690;6.268;2023-07-22T05:10:48;11.70;;;6.93;;
59659;SDS011;45534;52.690;6.268;2023-07-22T05:13:14;14.70;;;8.82;;
59659;SDS011;45534;52.690;6.268;2023-07-22T05:15:40;16.08;;;8.55;;
59659;SDS011;45534;52.690;6.268;2023-07-22T05:18:05;11.32;;;7.53;;
59659;SDS011;45534;52.690;6.268;2023-07-22T05:20:31;12.50;;;5.43;;
59659;SDS011;45534;52.690;6.268;2023-07-22T05:22:57;17.13;;;7.45;;
59659;SDS011;45534;52.690;6.268;2023-07-22T05:25:23;14.50;;;6.07;;
59659;SDS011;45534;52.690;6.268;2023-07-22T05:27:49;10.80;;;5.32;;
59659;SDS011;45534;52.690;6.268;2023-07-22T05:30:14;10.52;;;7.07;;
59659;SDS011;45534;52.690;6.268;2023-07-22T05:32:40;11.80;;;6.25;;
59659;SDS011;45534;52.690;6.268;2023-07-22T05:35:06;12.63;;;7.32;;
59659;SDS011;45534;52.690;6.268;2023-07-22T05:37:32;18.73;;;6.82;;
59659;SDS011;45534;52.690;6.268;2023-07-22T05:39:57;16.48;;;7.65;;
59659;SDS011;45534;52.690;6.268;2023-07-22T05:42:23;15.50;;;8.20;;
59659;SDS011;45534;52.690;6.268;2023-07-22T05:44:49;12.80;;;9.48;;
59659;SDS011;45534;52.690;6.268;2023-07-22T05:47:15;16.83;;;9.90;;
59659;SDS011;45534;52.690;6.268;2023-07-22T05:49:40;15.80;;;7.53;;
59659;SDS011;45534;52.690;6.268;2023-07-22T05:52:06;18.67;;;10.93;;
59659;SDS011;45534;52.690;6.268;2023-07-22T05:54:32;19.88;;;11.20;;
59659;SDS011;45534;52.690;6.268;2023-07-22T05:56:58;18.23;;;9.32;;
59659;SDS011;45534;52.690;6.268;2023-07-22T05:59:24;16.55;;;11.25;;
59659;SDS011;45534;52.690;6.268;2023-07-22T06:01:50;14.98;;;8.70;;
59659;SDS011;45534;52.690;6.268;2023-07-22T06:04:15;16.60;;;8.55;;
59659;SDS011;45534;52.690;6.268;2023-07-22T06:06:41;21.13;;;12.20;;
59659;SDS011;45534;52.690;6.268;2023-07-22T06:09:07;20.05;;;10.48;;
59659;SDS011;45534;52.690;6.268;2023-07-22T06:11:32;19.98;;;10.45;;
59659;SDS011;45534;52.690;6.268;2023-07-22T06:13:58;15.13;;;10.95;;
59659;SDS011;45534;52.690;6.268;2023-07-22T06:16:24;17.48;;;8.20;;
59659;SDS011;45534;52.690;6.268;2023-07-22T06:18:49;17.05;;;9.48;;
59659;SDS011;45534;52.690;6.268;2023-07-22T06:21:15;21.30;;;12.90;;
59659;SDS011;45534;52.690;6.268;2023-07-22T06:23:41;30.35;;;13.05;;
59659;SDS011;45534;52.690;6.268;2023-07-22T06:26:07;22.88;;;9.63;;
59659;SDS011;45534;52.690;6.268;2023-07-22T06:28:32;22.50;;;10.68;;
59659;SDS011;45534;52.690;6.268;2023-07-22T06:30:58;20.13;;;11.27;;
59659;SDS011;45534;52.690;6.268;2023-07-22T06:33:24;21.48;;;10.10;;
59659;SDS011;45534;52.690;6.268;2023-07-22T06:35:49;17.40;;;9.13;;
59659;SDS011;45534;52.690;6.268;2023-07-22T06:38:15;20.58;;;11.95;;
59659;SDS011;45534;52.690;6.268;2023-07-22T06:40:41;26.52;;;12.80;;
59659;SDS011;45534;52.690;6.268;2023-07-22T06:43:06;28.48;;;10.63;;
59659;SDS011;45534;52.690;6.268;2023-07-22T06:45:32;24.52;;;11.82;;
59659;SDS011;45534;52.690;6.268;2023-07-22T06:47:58;22.33;;;10.63;;
59659;SDS011;45534;52.690;6.268;2023-07-22T06:50:24;22.30;;;10.52;;
59659;SDS011;45534;52.690;6.268;2023-07-22T06:52:50;16.35;;;8.38;;
59659;SDS011;45534;52.690;6.268;2023-07-22T06:55:15;18.55;;;12.00;;
59659;SDS011;45534;52.690;6.268;2023-07-22T06:57:41;18.35;;;8.68;;
59659;SDS011;45534;52.690;6.268;2023-07-22T07:00:07;26.38;;;10.70;;
59659;SDS011;45534;52.690;6.268;2023-07-22T07:02:35;24.08;;;11.75;;
59659;SDS011;45534;52.690;6.268;2023-07-22T07:05:01;22.55;;;13.63;;
59659;SDS011;45534;52.690;6.268;2023-07-22T07:07:27;21.23;;;10.77;;
59659;SDS011;45534;52.690;6.268;2023-07-22T07:09:52;23.05;;;9.88;;
59659;SDS011;45534;52.690;6.268;2023-07-22T07:12:18;20.95;;;10.98;;
59659;SDS011;45534;52.690;6.268;2023-07-22T07:14:44;17.65;;;12.13;;
59659;SDS011;45534;52.690;6.268;2023-07-22T07:17:09;20.08;;;9.15;;
59659;SDS011;45534;52.690;6.268;2023-07-22T07:19:35;16.33;;;10.18;;
59659;SDS011;45534;52.690;6.268;2023-07-22T07:22:01;19.20;;;10.43;;
59659;SDS011;45534;52.690;6.268;2023-07-22T07:24:27;18.38;;;9.50;;
59659;SDS011;45534;52.690;6.268;2023-07-22T07:26:52;20.10;;;9.25;;
59659;SDS011;45534;52.690;6.268;2023-07-22T07:29:18;22.00;;;11.73;;
59659;SDS011;45534;52.690;6.268;2023-07-22T07:31:44;17.63;;;9.75;;
59659;SDS011;45534;52.690;6.268;2023-07-22T07:34:09;20.67;;;10.82;;
59659;SDS011;45534;52.690;6.268;2023-07-22T07:36:35;11.00;;;7.90;;
59659;SDS011;45534;52.690;6.268;2023-07-22T07:39:01;24.10;;;10.63;;
59659;SDS011;45534;52.690;6.268;2023-07-22T07:41:28;15.15;;;8.05;;
59659;SDS011;45534;52.690;6.268;2023-07-22T07:43:53;20.88;;;10.95;;
59659;SDS011;45534;52.690;6.268;2023-07-22T07:46:20;17.95;;;10.32;;
59659;SDS011;45534;52.690;6.268;2023-07-22T07:48:54;24.48;;;12.65;;
59659;SDS011;45534;52.690;6.268;2023-07-22T07:51:22;15.68;;;9.45;;
59659;SDS011;45534;52.690;6.268;2023-07-22T07:53:52;14.20;;;8.15;;
59659;SDS011;45534;52.690;6.268;2023-07-22T07:56:18;22.42;;;10.73;;
59659;SDS011;45534;52.690;6.268;2023-07-22T07:58:45;20.75;;;9.23;;
59659;SDS011;45534;52.690;6.268;2023-07-22T08:01:13;16.08;;;8.45;;
59659;SDS011;45534;52.690;6.268;2023-07-22T08:03:39;14.65;;;8.35;;
59659;SDS011;45534;52.690;6.268;2023-07-22T08:06:07;12.68;;;7.88;;
59659;SDS011;45534;52.690;6.268;2023-07-22T08:08:36;22.88;;;8.95;;
59659;SDS011;45534;52.690;6.268;2023-07-22T08:11:11;23.05;;;7.85;;
59659;SDS011;45534;52.690;6.268;2023-07-22T08:13:39;14.45;;;9.02;;
59659;SDS011;45534;52.690;6.268;2023-07-22T08:16:06;15.32;;;8.65;;
59659;SDS011;45534;52.690;6.268;2023-07-22T08:18:33;17.83;;;9.43;;
59659;SDS011;45534;52.690;6.268;2023-07-22T08:21:00;18.92;;;9.75;;
59659;SDS011;45534;52.690;6.268;2023-07-22T08:23:27;14.57;;;6.60;;
59659;SDS011;45534;52.690;6.268;2023-07-22T08:25:53;14.80;;;7.53;;
59659;SDS011;45534;52.690;6.268;2023-07-22T08:28:19;21.30;;;8.63;;
59659;SDS011;45534;52.690;6.268;2023-07-22T08:30:44;12.43;;;8.88;;
59659;SDS011;45534;52.690;6.268;2023-07-22T08:33:10;16.00;;;8.23;;
59659;SDS011;45534;52.690;6.268;2023-07-22T08:35:37;14.98;;;8.57;;
59659;SDS011;45534;52.690;6.268;2023-07-22T08:38:04;13.50;;;7.85;;
59659;SDS011;45534;52.690;6.268;2023-07-22T08:40:37;17.30;;;8.52;;
59659;SDS011;45534;52.690;6.268;2023-07-22T08:43:04;13.48;;;7.45;;
59659;SDS011;45534;52.690;6.268;2023-07-22T08:45:31;24.05;;;10.55;;
59659;SDS011;45534;52.690;6.268;2023-07-22T08:47:59;7.57;;;4.45;;
59659;SDS011;45534;52.690;6.268;2023-07-22T08:50:44;15.15;;;7.40;;
59659;SDS011;45534;52.690;6.268;2023-07-22T08:53:13;16.13;;;8.93;;
59659;SDS011;45534;52.690;6.268;2023-07-22T08:55:39;15.57;;;10.02;;
59659;SDS011;45534;52.690;6.268;2023-07-22T08:58:09;21.27;;;7.57;;
59659;SDS011;45534;52.690;6.268;2023-07-22T09:00:36;14.73;;;8.70;;
59659;SDS011;45534;52.690;6.268;2023-07-22T09:03:03;13.77;;;7.75;;
59659;SDS011;45534;52.690;6.268;2023-07-22T09:05:31;12.48;;;8.80;;
59659;SDS011;45534;52.690;6.268;2023-07-22T09:07:58;16.15;;;9.60;;
59659;SDS011;45534;52.690;6.268;2023-07-22T09:10:27;16.55;;;8.60;;
59659;SDS011;45534;52.690;6.268;2023-07-22T09:12:53;17.52;;;8.77;;
59659;SDS011;45534;52.690;6.268;2023-07-22T09:15:19;10.93;;;7.30;;
59659;SDS011;45534;52.690;6.268;2023-07-22T09:17:46;13.43;;;8.15;;
59659;SDS011;45534;52.690;6.268;2023-07-22T09:20:13;14.15;;;7.30;;
59659;SDS011;45534;52.690;6.268;2023-07-22T09:22:43;15.32;;;7.65;;
59659;SDS011;45534;52.690;6.268;2023-07-22T09:25:26;21.48;;;9.18;;
59659;SDS011;45534;52.690;6.268;2023-07-22T09:27:53;18.90;;;8.40;;
59659;SDS011;45534;52.690;6.268;2023-07-22T09:30:27;16.27;;;8.75;;
59659;SDS011;45534;52.690;6.268;2023-07-22T09:32:59;17.23;;;8.93;;
59659;SDS011;45534;52.690;6.268;2023-07-22T09:35:26;15.40;;;9.38;;
59659;SDS011;45534;52.690;6.268;2023-07-22T09:37:54;13.35;;;7.20;;
59659;SDS011;45534;52.690;6.268;2023-07-22T09:40:22;16.08;;;8.88;;
59659;SDS011;45534;52.690;6.268;2023-07-22T09:42:50;13.68;;;7.05;;
59659;SDS011;45534;52.690;6.268;2023-07-22T09:45:17;19.13;;;9.48;;
59659;SDS011;45534;52.690;6.268;2023-07-22T09:47:44;15.00;;;9.57;;
59659;SDS011;45534;52.690;6.268;2023-07-22T09:50:14;21.35;;;17.40;;
59659;SDS011;45534;52.690;6.268;2023-07-22T09:52:44;15.57;;;8.43;;
59659;SDS011;45534;52.690;6.268;2023-07-22T09:55:11;14.57;;;8.43;;
59659;SDS011;45534;52.690;6.268;2023-07-22T09:57:38;18.60;;;8.85;;
59659;SDS011;45534;52.690;6.268;2023-07-22T10:00:08;12.77;;;7.35;;
59659;SDS011;45534;52.690;6.268;2023-07-22T10:02:35;10.60;;;6.88;;
59659;SDS011;45534;52.690;6.268;2023-07-22T10:05:03;13.23;;;6.13;;
59659;SDS011;45534;52.690;6.268;2023-07-22T10:07:30;10.60;;;5.97;;
59659;SDS011;45534;52.690;6.268;2023-07-22T10:09:58;11.48;;;5.78;;
59659;SDS011;45534;52.690;6.268;2023-07-22T10:12:25;17.33;;;7.07;;
59659;SDS011;45534;52.690;6.268;2023-07-22T10:14:53;19.20;;;9.98;;
59659;SDS011;45534;52.690;6.268;2023-07-22T10:17:19;12.70;;;5.97;;
59659;SDS011;45534;52.690;6.268;2023-07-22T10:19:45;10.60;;;6.15;;
59659;SDS011;45534;52.690;6.268;2023-07-22T10:22:11;14.30;;;7.53;;
59659;SDS011;45534;52.690;6.268;2023-07-22T10:24:37;11.15;;;7.15;;
59659;SDS011;45534;52.690;6.268;2023-07-22T10:27:06;15.98;;;7.72;;
59659;SDS011;45534;52.690;6.268;2023-07-22T10:29:33;14.88;;;8.02;;
59659;SDS011;45534;52.690;6.268;2023-07-22T10:31:59;10.95;;;6.18;;
59659;SDS011;45534;52.690;6.268;2023-07-22T10:34:25;12.90;;;8.20;;
59659;SDS011;45534;52.690;6.268;2023-07-22T10:36:51;9.27;;;5.63;;
59659;SDS011;45534;52.690;6.268;2023-07-22T10:39:26;11.20;;;8.02;;
59659;SDS011;45534;52.690;6.268;2023-07-22T10:42:02;9.90;;;5.68;;
59659;SDS011;45534;52.690;6.268;2023-07-22T10:44:33;8.55;;;7.63;;
59659;SDS011;45534;52.690;6.268;2023-07-22T10:47:02;12.02;;;5.03;;
59659;SDS011;45534;52.690;6.268;2023-07-22T10:49:45;10.20;;;7.55;;
59659;SDS011;45534;52.690;6.268;2023-07-22T10:52:12;8.35;;;6.03;;
59659;SDS011;45534;52.690;6.268;2023-07-22T10:54:39;10.18;;;6.60;;
59659;SDS011;45534;52.690;6.268;2023-07-22T10:59:41;6.43;;;4.95;;
59659;SDS011;45534;52.690;6.268;2023-07-22T11:02:27;8.25;;;5.13;;
59659;SDS011;45534;52.690;6.268;2023-07-22T11:04:57;4.88;;;3.72;;
59659;SDS011;45534;52.690;6.268;2023-07-22T11:07:33;9.95;;;6.85;;
59659;SDS011;45534;52.690;6.268;2023-07-22T11:10:12;13.35;;;7.20;;
59659;SDS011;45534;52.690;6.268;2023-07-22T11:12:43;16.08;;;8.00;;
59659;SDS011;45534;52.690;6.268;2023-07-22T11:15:10;13.55;;;8.25;;
59659;SDS011;45534;52.690;6.268;2023-07-22T11:17:37;12.50;;;8.05;;
59659;SDS011;45534;52.690;6.268;2023-07-22T11:20:03;14.95;;;8.88;;
59659;SDS011;45534;52.690;6.268;2023-07-22T11:22:29;12.52;;;8.13;;
59659;SDS011;45534;52.690;6.268;2023-07-22T11:24:55;12.50;;;8.35;;
59659;SDS011;45534;52.690;6.268;2023-07-22T11:27:23;13.85;;;10.30;;
59659;SDS011;45534;52.690;6.268;2023-07-22T11:29:49;12.88;;;7.18;;
59659;SDS011;45534;52.690;6.268;2023-07-22T11:32:18;23.02;;;10.18;;
59659;SDS011;45534;52.690;6.268;2023-07-22T11:34:48;12.63;;;9.50;;
59659;SDS011;45534;52.690;6.268;2023-07-22T11:37:16;16.42;;;11.00;;
59659;SDS011;45534;52.690;6.268;2023-07-22T11:39:43;13.70;;;9.40;;
59659;SDS011;45534;52.690;6.268;2023-07-22T11:42:09;14.52;;;9.68;;
59659;SDS011;45534;52.690;6.268;2023-07-22T11:44:36;22.38;;;11.95;;
59659;SDS011;45534;52.690;6.268;2023-07-22T11:47:03;20.08;;;10.45;;
59659;SDS011;45534;52.690;6.268;2023-07-22T11:49:37;14.38;;;9.18;;
59659;SDS011;45534;52.690;6.268;2023-07-22T11:52:04;15.73;;;10.18;;
59659;SDS011;45534;52.690;6.268;2023-07-22T11:54:32;15.07;;;9.65;;
59659;SDS011;45534;52.690;6.268;2023-07-22T11:57:15;13.05;;;8.13;;
59659;SDS011;45534;52.690;6.268;2023-07-22T11:59:55;10.48;;;7.57;;
59659;SDS011;45534;52.690;6.268;2023-07-22T12:02:22;9.40;;;6.85;;
59659;SDS011;45534;52.690;6.268;2023-07-22T12:04:53;15.02;;;9.23;;
59659;SDS011;45534;52.690;6.268;2023-07-22T12:07:34;10.50;;;9.10;;
59659;SDS011;45534;52.690;6.268;2023-07-22T12:10:05;14.23;;;7.75;;
59659;SDS011;45534;52.690;6.268;2023-07-22T12:12:32;9.15;;;7.00;;
59659;SDS011;45534;52.690;6.268;2023-07-22T12:20:11;7.85;;;5.32;;
59659;SDS011;45534;52.690;6.268;2023-07-22T12:22:37;10.85;;;7.05;;
59659;SDS011;45534;52.690;6.268;2023-07-22T12:25:02;9.23;;;6.95;;
59659;SDS011;45534;52.690;6.268;2023-07-22T12:27:28;7.57;;;4.93;;
59659;SDS011;45534;52.690;6.268;2023-07-22T12:29:54;7.75;;;6.18;;
59659;SDS011;45534;52.690;6.268;2023-07-22T12:32:20;12.32;;;6.90;;
59659;SDS011;45534;52.690;6.268;2023-07-22T12:34:46;10.75;;;5.95;;
59659;SDS011;45534;52.690;6.268;2023-07-22T12:37:12;9.23;;;6.40;;
59659;SDS011;45534;52.690;6.268;2023-07-22T12:39:37;8.45;;;5.40;;
59659;SDS011;45534;52.690;6.268;2023-07-22T12:42:03;11.75;;;5.43;;
59659;SDS011;45534;52.690;6.268;2023-07-22T12:44:29;13.80;;;6.78;;
59659;SDS011;45534;52.690;6.268;2023-07-22T12:46:55;12.93;;;6.50;;
59659;SDS011;45534;52.690;6.268;2023-07-22T12:49:20;9.52;;;5.57;;
59659;SDS011;45534;52.690;6.268;2023-07-22T12:51:46;10.18;;;6.07;;
59659;SDS011;45534;52.690;6.268;2023-07-22T12:54:12;9.00;;;6.40;;
59659;SDS011;45534;52.690;6.268;2023-07-22T12:56:37;9.90;;;5.28;;
59659;SDS011;45534;52.690;6.268;2023-07-22T12:59:03;9.52;;;5.15;;
59659;SDS011;45534;52.690;6.268;2023-07-22T13:01:29;13.30;;;7.32;;
59659;SDS011;45534;52.690;6.268;2023-07-22T13:03:54;8.57;;;5.57;;
59659;SDS011;45534;52.690;6.268;2023-07-22T13:06:20;10.50;;;4.30;;
59659;SDS011;45534;52.690;6.268;2023-07-22T13:08:46;8.75;;;5.00;;
59659;SDS011;45534;52.690;6.268;2023-07-22T13:11:11;9.00;;;5.28;;
59659;SDS011;45534;52.690;6.268;2023-07-22T13:13:37;12.32;;;7.15;;
59659;SDS011;45534;52.690;6.268;2023-07-22T13:16:03;11.25;;;5.88;;
59659;SDS011;45534;52.690;6.268;2023-07-22T13:18:28;7.38;;;4.72;;
59659;SDS011;45534;52.690;6.268;2023-07-22T13:20:54;11.57;;;6.70;;
59659;SDS011;45534;52.690;6.268;2023-07-22T13:23:20;10.00;;;5.68;;
59659;SDS011;45534;52.690;6.268;2023-07-22T13:25:45;8.55;;;6.60;;
59659;SDS011;45534;52.690;6.268;2023-07-22T13:28:11;8.85;;;5.72;;
59659;SDS011;45534;52.690;6.268;2023-07-22T13:30:37;9.35;;;5.57;;
59659;SDS011;45534;52.690;6.268;2023-07-22T13:33:02;8.52;;;6.22;;
59659;SDS011;45534;52.690;6.268;2023-07-22T13:35:28;9.10;;;5.90;;
59659;SDS011;45534;52.690;6.268;2023-07-22T13:37:54;9.43;;;5.55;;
59659;SDS011;45534;52.690;6.268;2023-07-22T13:40:20;8.80;;;5.25;;
59659;SDS011;45534;52.690;6.268;2023-07-22T13:42:46;10.15;;;5.97;;
59659;SDS011;45534;52.690;6.268;2023-07-22T13:45:11;9.27;;;7.00;;
59659;SDS011;45534;52.690;6.268;2023-07-22T13:47:37;9.77;;;7.40;;
59659;SDS011;45534;52.690;6.268;2023-07-22T13:50:03;15.07;;;6.68;;
59659;SDS011;45534;52.690;6.268;2023-07-22T13:52:29;11.32;;;7.95;;
59659;SDS011;45534;52.690;6.268;2023-07-22T13:54:54;8.02;;;6.18;;
59659;SDS011;45534;52.690;6.268;2023-07-22T13:57:20;11.07;;;6.85;;
59659;SDS011;45534;52.690;6.268;2023-07-22T13:59:46;10.30;;;6.70;;
59659;SDS011;45534;52.690;6.268;2023-07-22T14:02:11;6.93;;;5.47;;
59659;SDS011;45534;52.690;6.268;2023-07-22T14:04:37;11.95;;;6.65;;
59659;SDS011;45534;52.690;6.268;2023-07-22T14:07:03;9.80;;;7.32;;
59659;SDS011;45534;52.690;6.268;2023-07-22T14:09:29;12.93;;;6.15;;
59659;SDS011;45534;52.690;6.268;2023-07-22T14:11:55;8.68;;;6.07;;
59659;SDS011;45534;52.690;6.268;2023-07-22T14:14:20;12.65;;;8.13;;
59659;SDS011;45534;52.690;6.268;2023-07-22T14:16:53;9.85;;;5.88;;
59659;SDS011;45534;52.690;6.268;2023-07-22T14:19:20;8.10;;;5.75;;
59659;SDS011;45534;52.690;6.268;2023-07-22T14:21:46;6.20;;;4.30;;
59659;SDS011;45534;52.690;6.268;2023-07-22T14:24:12;13.90;;;7.70;;
59659;SDS011;45534;52.690;6.268;2023-07-22T14:26:37;6.55;;;5.03;;
59659;SDS011;45534;52.690;6.268;2023-07-22T14:29:03;8.57;;;6.07;;
59659;SDS011;45534;52.690;6.268;2023-07-22T14:31:28;9.82;;;5.65;;
59659;SDS011;45534;52.690;6.268;2023-07-22T14:33:54;11.38;;;7.53;;
59659;SDS011;45534;52.690;6.268;2023-07-22T14:36:20;7.75;;;6.00;;
59659;SDS011;45534;52.690;6.268;2023-07-22T14:38:46;8.65;;;6.18;;
59659;SDS011;45534;52.690;6.268;2023-07-22T14:41:11;11.85;;;8.30;;